Latest Weather Observations for Warwick

IDQ60901

Issued at 7:11 pm EST Saturday 16 December 2017 (issued every 10 minutes, with the page automatically refreshed every 10 minutes)

About weather observations | Map of Brisbane area stations | Latest observations for Brisbane area | Other Formats
Station Details ID: 041525 Name: WARWICK Lat: -28.21 Lon: 152.10 Height: 475.4 m
Data from the previous 72 hours. | See also: Recent months at Warwick
Date/Time
EST
Temp
°C
App
Temp
°C
Dew
Point
°C
Rel
Hum
%
Delta-T
°C
Wind Press
QNH
hPa
Press
MSL
hPa
Rain since
9am
mm
Dir  Spd
km/h
Gust
km/h
Spd
kts
Gust
kts
16/07:00pm 25.4 23.4 17.4 61 5.1 NE 24 32 13 17 1015.2 1012.7 0.0
16/06:30pm 26.7 24.1 16.9 55 6.2 NE 26 32 14 17 1014.7 1012.3 0.0
16/06:00pm 28.5 25.4 15.5 45 8.1 NE 26 32 14 17 1013.9 1011.5 0.0
16/05:30pm 29.9 26.8 13.5 36 10.0 NE 22 32 12 17 1013.4 1010.9 0.0
16/05:00pm 31.2 28.6 14.9 37 10.2 NE 22 33 12 18 1013.0 1010.5 0.0
16/04:30pm 31.6 30.5 15.4 37 10.2 NE 15 20 8 11 1012.9 1010.4 0.0
16/04:00pm 32.6 30.7 15.8 36 10.7 NNE 20 30 11 16 1013.0 1010.5 0.0
16/03:30pm 33.1 32.2 13.7 31 12.0 SE 11 20 6 11 1013.2 1010.7 0.0
16/03:00pm 32.9 31.7 14.1 32 11.7 E 13 24 7 13 1013.6 1011.1 0.0
16/02:30pm 32.0 31.1 13.6 32 11.3 SSE 11 20 6 11 1014.0 1011.6 0.0
16/02:00pm 32.8 32.0 14.1 32 11.6 ESE 11 22 6 12 1014.4 1012.0 0.0
16/01:30pm 32.1 32.2 14.4 34 11.0 SE 7 17 4 9 1014.8 1012.4 0.0
16/01:00pm 31.0 31.7 14.6 37 10.2 WSW 4 9 2 5 1015.4 1012.9 0.0
16/12:30pm 30.5 30.6 14.5 37 9.9 WSW 7 15 4 8 1015.9 1013.5 0.0
16/12:00pm 29.7 29.6 14.9 40 9.2 S 9 15 5 8 1016.4 1014.0 0.0
16/11:30am 30.2 30.3 13.9 37 10.0 NNE 6 17 3 9 1016.9 1014.5 0.0
16/11:00am 28.7 28.2 14.8 42 8.6 NE 11 20 6 11 1017.3 1014.8 0.0
16/10:30am 27.9 27.3 14.7 44 8.1 ESE 11 20 6 11 1017.7 1015.3 0.0
16/10:00am 28.3 27.8 14.9 44 8.3 N 11 26 6 14 1017.8 1015.4 0.0
16/09:30am 26.8 26.8 14.3 46 7.6 N 7 17 4 9 1017.9 1015.5 0.0
16/09:00am 26.2 24.5 14.8 49 7.0 NE 17 26 9 14 1017.9 1015.5 0.0
16/08:30am 25.1 24.3 15.1 53 6.1 NE 13 22 7 12 1018.0 1015.6 0.0
16/08:00am 24.3 23.4 14.9 55 5.7 NE 13 17 7 9 1018.0 1015.6 0.0
16/07:30am 23.3 25.0 16.2 64 4.4 NNE 2 9 1 5 1018.0 1015.6 0.0
16/07:00am 21.6 22.8 15.9 70 3.5 SSE 4 9 2 5 1017.9 1015.5 0.0
16/06:30am 20.1 22.0 15.8 76 2.6 CALM 0 6 0 3 1017.7 1015.3 0.0
16/06:00am 18.9 20.9 15.9 83 1.8 CALM 0 0 0 0 1017.3 1014.8 0.0
16/05:30am 16.7 18.4 15.2 91 0.9 CALM 0 0 0 0 1016.8 1014.4 0.0
16/05:00am 16.2 17.6 14.5 90 1.0 CALM 0 0 0 0 1016.4 1014.0 0.0
16/04:30am 16.5 18.1 14.8 90 1.0 CALM 0 0 0 0 1016.0 1013.6 0.0
16/04:00am 17.0 18.4 14.3 84 1.6 CALM 0 0 0 0 1015.7 1013.3 0.0
16/03:30am 18.1 19.7 14.9 81 1.9 CALM 0 0 0 0 1015.5 1013.0 0.0
16/03:00am 18.5 20.2 15.3 81 1.9 CALM 0 0 0 0 1015.4 1012.9 0.0
16/02:30am 18.8 19.1 15.1 79 2.2 NE 7 13 4 7 1015.4 1012.9 0.0
16/02:00am 19.2 18.7 15.0 76 2.5 NE 11 13 6 7 1015.3 1012.8 0.0
16/01:30am 19.7 19.4 15.4 76 2.6 ENE 11 15 6 8 1015.5 1013.0 0.0
16/01:00am 20.0 19.7 15.4 75 2.8 ENE 11 15 6 8 1015.5 1013.0 0.0
16/12:30am 20.5 19.4 15.4 72 3.1 ENE 15 20 8 11 1015.5 1013.0 0.0
16/12:00am 20.7 19.3 15.6 72 3.1 NE 17 22 9 12 1015.6 1013.2 0.0
 
Date/Time
EST
Temp
°C
App
Temp
°C
Dew
Point
°C
Rel
Hum
%
Delta-T
°C
Wind Press
QNH
hPa
Press
MSL
hPa
Rain since
9am
mm
Dir  Spd
km/h
Gust
km/h
Spd
kts
Gust
kts
15/11:30pm 21.0 19.3 15.8 72 3.2 NE 19 24 10 13 1015.6 1013.2 0.0
15/11:00pm 21.1 19.8 15.9 72 3.2 ENE 17 24 9 13 1015.6 1013.2 0.0
15/10:30pm 21.2 20.1 16.3 73 3.0 NE 17 24 9 13 1015.7 1013.3 0.0
15/10:00pm 21.6 19.5 16.2 71 3.3 NE 22 28 12 15 1015.5 1013.0 0.0
15/09:30pm 22.1 19.7 16.3 69 3.6 NE 24 32 13 17 1015.4 1012.9 0.0
15/09:00pm 22.6 19.7 16.1 66 4.0 NE 26 33 14 18 1015.1 1012.6 0.0
15/08:30pm 23.0 20.4 16.0 64 4.3 NE 24 30 13 16 1014.8 1012.4 0.0
15/08:00pm 23.8 22.5 15.7 60 5.0 NE 17 19 9 10 1014.6 1012.2 0.0
15/07:30pm 24.7 22.4 15.8 57 5.5 NE 22 28 12 15 1014.2 1011.8 0.0
15/07:00pm 25.8 22.8 14.9 51 6.7 NE 24 32 13 17 1013.5 1011.0 0.0
15/06:30pm 27.5 25.4 14.7 45 7.9 ENE 19 24 10 13 1012.8 1010.3 0.0
15/06:00pm 28.8 25.8 13.7 39 9.2 ENE 22 32 12 17 1012.0 1009.6 0.0
15/05:30pm 30.0 27.3 14.5 38 9.6 ENE 22 32 12 17 1011.4 1008.9 0.0
15/05:00pm 30.9 28.5 14.5 37 10.2 ENE 20 32 11 17 1011.1 1008.6 0.0
15/04:30pm 32.3 30.1 14.3 33 11.2 E 19 26 10 14 1010.9 1008.4 0.0
15/04:00pm 32.9 31.4 12.0 28 12.6 S 11 19 6 10 1010.6 1008.1 0.0
15/03:30pm 33.3 32.0 13.6 30 12.2 ESE 13 22 7 12 1010.8 1008.3 0.0
15/03:00pm 32.7 30.5 10.7 26 13.0 ESE 13 28 7 15 1010.9 1008.4 0.0
15/02:30pm 33.5 32.6 12.5 28 12.8 ESE 9 24 5 13 1011.1 1008.6 0.0
15/02:00pm 32.6 30.4 9.5 24 13.4 ENE 11 22 6 12 1011.4 1008.9 0.0
15/01:30pm 33.3 31.9 12.2 27 12.8 SSE 11 24 6 13 1011.6 1009.1 0.0
15/01:00pm 33.3 29.9 10.7 25 13.4 SE 19 30 10 16 1012.0 1009.6 0.0
15/12:30pm 32.2 29.9 10.4 26 12.8 ESE 13 24 7 13 1012.3 1009.9 0.0
15/12:00pm 32.1 31.1 12.2 29 12.0 SSE 9 17 5 9 1012.8 1010.3 0.0
15/11:30am 31.5 29.3 12.0 30 11.7 S 15 28 8 15 1013.2 1010.7 0.0
15/11:00am 29.9 28.9 12.4 34 10.5 ENE 9 17 5 9 1013.7 1011.3 0.0
15/10:30am 29.3 28.2 13.1 37 9.8 W 11 19 6 10 1014.1 1011.7 0.0
15/10:00am 27.8 27.3 13.8 42 8.5 NW 9 13 5 7 1014.4 1012.0 0.0
15/09:30am 26.8 26.8 15.3 49 7.1 SSE 9 13 5 7 1014.6 1012.2 0.0
15/09:00am 25.6 26.7 15.6 54 6.2 WSW 4 11 2 6 1014.8 1012.4 0.0
15/08:30am 24.7 25.2 15.6 57 5.6 SW 7 13 4 7 1014.9 1012.5 0.0
15/08:00am 23.1 24.6 15.8 63 4.5 SE 2 7 1 4 1015.2 1012.7 0.0
15/07:30am 21.8 22.0 15.8 68 3.7 SSW 9 13 5 7 1015.2 1012.7 0.0
15/07:00am 20.0 21.3 15.2 74 2.9 SW 2 11 1 6 1015.2 1012.7 0.0
15/06:30am 18.0 19.2 14.8 81 1.9 SW 2 7 1 4 1014.8 1012.4 0.0
15/06:00am 16.6 17.2 14.2 86 1.4 SW 4 9 2 5 1014.6 1012.2 0.0
15/05:30am 15.4 16.6 13.8 90 0.9 CALM 0 0 0 0 1014.2 1011.8 0.0
15/05:00am 14.8 15.9 13.6 92 0.7 CALM 0 0 0 0 1014.0 1011.6 0.0
15/04:30am 15.3 16.6 14.1 92 0.7 CALM 0 0 0 0 1013.6 1011.1 0.0
15/04:00am 15.3 16.6 14.1 92 0.7 CALM 0 0 0 0 1013.2 1010.7 0.0
15/03:30am 15.9 17.3 14.4 91 0.9 CALM 0 6 0 3 1013.1 1010.6 0.0
15/03:00am 16.4 18.1 15.2 93 0.7 CALM 0 0 0 0 1013.1 1010.6 0.0
15/02:30am 15.9 17.2 14.0 88 1.1 CALM 0 0 0 0 1012.9 1010.4 0.0
15/02:00am 17.0 18.5 14.6 86 1.4 CALM 0 0 0 0 1012.9 1010.4 0.0
15/01:30am 17.1 18.4 14.2 83 1.7 CALM 0 0 0 0 1013.0 1010.5 0.0
15/01:00am 17.9 19.7 15.4 85 1.5 CALM 0 0 0 0 1013.1 1010.6 0.0
15/12:30am 18.3 20.0 15.3 83 1.8 CALM 0 6 0 3 1013.4 1010.9 0.0
15/12:00am 18.9 20.7 15.4 80 2.1 CALM 0 0 0 0 1013.5 1011.0 0.0
 
Date/Time
EST
Temp
°C
App
Temp
°C
Dew
Point
°C
Rel
Hum
%
Delta-T
°C
Wind Press
QNH
hPa
Press
MSL
hPa
Rain since
9am
mm
Dir  Spd
km/h
Gust
km/h
Spd
kts
Gust
kts
14/11:30pm 19.4 21.3 15.8 80 2.2 CALM 0 0 0 0 1013.7 1011.3 0.0
14/11:00pm 20.6 22.7 16.2 76 2.7 CALM 0 0 0 0 1013.8 1011.4 0.0
14/10:30pm 20.8 20.4 15.2 70 3.4 NNE 11 15 6 8 1013.9 1011.5 0.0
14/10:00pm 21.2 19.4 15.4 69 3.5 NE 19 26 10 14 1013.8 1011.4 0.0
14/09:30pm 21.8 19.8 15.0 65 4.1 NNE 19 24 10 13 1013.8 1011.4 0.0
14/09:00pm 22.3 20.8 15.4 65 4.2 NE 17 22 9 12 1013.4 1010.9 0.0
14/08:30pm 23.2 21.5 15.7 62 4.6 NE 19 22 10 12 1013.1 1010.6 0.0
14/08:00pm 23.7 22.5 15.0 58 5.3 NE 15 19 8 10 1013.0 1010.5 0.0
14/07:30pm 24.6 23.3 14.9 54 5.9 NE 15 19 8 10 1012.8 1010.3 0.0
14/07:00pm 25.5 23.5 13.9 48 7.0 NE 17 20 9 11 1012.4 1010.0 0.0
14/06:30pm 26.6 23.3 14.1 46 7.6 NE 24 32 13 17 1011.9 1009.5 0.0
14/06:00pm 27.9 23.9 13.1 40 8.9 NE 26 35 14 19 1011.5 1009.0 0.0
14/05:30pm 29.6 26.8 13.1 36 10.0 ENE 20 30 11 16 1011.1 1008.6 0.0
14/05:00pm 30.4 27.8 13.1 34 10.5 ENE 19 28 10 15 1010.6 1008.1 0.0
14/04:30pm 32.7 30.8 11.9 28 12.5 E 13 26 7 14 1010.2 1007.8 0.0
14/04:00pm 33.5 31.3 12.0 27 13.0 E 15 28 8 15 1010.1 1007.7 0.0
14/03:30pm 33.1 31.0 12.3 28 12.6 ESE 15 28 8 15 1010.2 1007.8 0.0
14/03:00pm 34.1 31.2 8.3 20 14.8 SE 13 24 7 13 1010.3 1007.9 0.0
14/02:30pm 34.2 32.2 10.1 23 14.2 SE 11 28 6 15 1010.6 1008.1 0.0
14/02:00pm 33.3 31.0 9.1 22 14.0 SE 11 19 6 10 1010.9 1008.4 0.0
14/01:30pm 32.1 30.2 6.6 20 14.1 ESE 6 15 3 8 1011.3 1008.8 0.0
14/01:00pm 32.4 29.9 8.3 22 13.7 S 11 24 6 13 1011.6 1009.1 0.0
14/12:30pm 31.6 29.7 10.4 27 12.4 SSW 11 22 6 12 1012.1 1009.7 0.0
14/12:00pm 30.1 27.8 9.0 27 12.0 WNW 11 20 6 11 1012.5 1010.1 0.0
14/11:30am 29.4 27.1 10.4 30 11.0 WSW 13 17 7 9 1013.0 1010.5 0.0
14/11:00am 28.7 27.2 10.6 32 10.5 N 9 13 5 7 1013.5 1011.0 0.0
14/10:30am 28.3 32.3 23.7 76 3.2 W 9 17 5 9 1013.8 1011.4 0.0
14/10:00am 27.4 26.7 13.3 41 8.5 ENE 9 15 5 8 1014.0 1011.6 0.0
14/09:30am 25.8 25.8 13.7 47 7.3 SSE 6 17 3 9 1014.2 1011.8 0.0
14/09:00am 24.6 24.8 14.1 52 6.3 SSW 6 13 3 7 1014.5 1012.1 0.0
14/08:30am 22.5 23.3 14.7 61 4.7 W 4 9 2 5 1014.7 1012.3 0.0
14/08:00am 21.8 22.2 14.8 64 4.2 SW 6 11 3 6 1015.3 1012.8 0.0
14/07:30am 20.4 21.2 14.7 70 3.4 SSW 4 11 2 6 1015.4 1012.9 0.0
14/07:00am 18.8 20.4 14.9 78 2.3 CALM 0 0 0 0 1015.5 1013.0 0.0
14/06:30am 16.8 18.2 14.4 86 1.4 CALM 0 0 0 0 1015.7 1013.3 0.0
14/06:00am 15.5 16.6 13.6 88 1.1 CALM 0 0 0 0 1015.7 1013.3 0.0
14/05:30am 13.6 14.5 12.9 95 0.4 CALM 0 0 0 0 1015.3 1012.8 0.0
14/05:00am 13.2 14.0 12.5 95 0.4 CALM 0 0 0 0 1015.3 1012.8 0.0
14/04:30am 13.6 13.8 12.9 95 0.4 E 4 7 2 4 1014.7 1012.3 0.0
14/04:00am 13.7 14.6 12.8 94 0.5 CALM 0 0 0 0 1014.6 1012.2 0.0
14/03:30am 14.4 15.4 13.3 93 0.6 CALM 0 0 0 0 1014.5 1012.1 0.0
14/03:00am 14.9 16.2 14.0 94 0.5 CALM 0 0 0 0 1014.4 1012.0 0.0
14/02:30am 15.6 17.1 14.6 94 0.6 CALM 0 0 0 0 1014.4 1012.0 0.0
14/02:00am 15.9 17.4 14.7 93 0.7 CALM 0 0 0 0 1014.6 1012.2 0.0
14/01:30am 16.0 17.5 14.6 91 0.8 CALM 0 0 0 0 1014.8 1012.4 0.0
14/01:00am 16.6 18.1 14.7 88 1.1 CALM 0 0 0 0 1015.2 1012.7 0.0
14/12:30am 16.6 17.9 14.2 86 1.4 CALM 0 0 0 0 1015.5 1013.0 0.0
14/12:00am 18.6 19.2 15.4 81 1.9 ENE 6 7 3 4 1015.7 1013.3 0.0
 
Date/Time
EST
Temp
°C
App
Temp
°C
Dew
Point
°C
Rel
Hum
%
Delta-T
°C
Wind Press
QNH
hPa
Press
MSL
hPa
Rain since
9am
mm
Dir  Spd
km/h
Gust
km/h
Spd
kts
Gust
kts
13/11:30pm 18.6 18.2 15.1 80 2.1 NNE 11 15 6 8 1016.1 1013.7 0.0
13/11:00pm 18.9 18.1 15.2 79 2.2 NE 13 17 7 9 1016.1 1013.7 0.0
13/10:30pm 19.4 18.6 15.2 76 2.5 NE 13 17 7 9 1016.3 1013.9 0.0
13/10:00pm 20.0 18.2 15.5 75 2.7 NE 19 24 10 13 1016.2 1013.8 0.0
13/09:30pm 20.3 19.0 15.7 75 2.8 NE 17 22 9 12 1016.0 1013.6 0.0
13/09:00pm 20.9 19.4 16.2 74 2.9 NE 19 26 10 14 1015.8 1013.4 0.0
13/08:30pm 21.6 20.1 16.2 71 3.3 NE 19 24 10 13 1015.6 1013.2 0.0
13/08:00pm 22.3 20.7 16.1 68 3.8 NE 19 24 10 13 1015.4 1012.9 0.0
13/07:30pm 23.2 21.3 15.7 62 4.6 NE 20 26 11 14 1015.1 1012.6 0.0

Latest Capital City Observations: Canberra | Sydney | Melbourne | Brisbane | Adelaide | Perth | Hobart | Darwin

Other Formats:

Comma delimited format used in spreadsheet applications
http://www.bom.gov.au/fwo/IDQ60901/IDQ60901.94555.axf

JavaScript Object Notation format (JSON) in row-major order
http://www.bom.gov.au/fwo/IDQ60901/IDQ60901.94555.json